sensor_id;sensor_type;location;lat;lon;timestamp;temperature;humidity
17152;DHT22;8691;50.828;4.700;2023-03-14T00:01:58;11.40;99.90
17152;DHT22;8691;50.828;4.700;2023-03-14T00:04:35;11.30;99.90
17152;DHT22;8691;50.828;4.700;2023-03-14T00:07:12;11.30;99.90
17152;DHT22;8691;50.828;4.700;2023-03-14T00:09:48;11.40;99.90
17152;DHT22;8691;50.828;4.700;2023-03-14T00:12:26;11.40;99.90
17152;DHT22;8691;50.828;4.700;2023-03-14T00:15:02;11.40;99.90
17152;DHT22;8691;50.828;4.700;2023-03-14T00:17:42;11.40;99.90
17152;DHT22;8691;50.828;4.700;2023-03-14T00:20:18;11.30;99.90
17152;DHT22;8691;50.828;4.700;2023-03-14T00:22:55;11.20;99.90
17152;DHT22;8691;50.828;4.700;2023-03-14T00:25:34;11.20;99.90
17152;DHT22;8691;50.828;4.700;2023-03-14T00:28:09;11.20;99.90
17152;DHT22;8691;50.828;4.700;2023-03-14T00:30:45;11.10;99.90
17152;DHT22;8691;50.828;4.700;2023-03-14T00:33:22;11.10;99.90
17152;DHT22;8691;50.828;4.700;2023-03-14T00:36:03;11.00;99.90
17152;DHT22;8691;50.828;4.700;2023-03-14T00:38:35;11.00;99.90
17152;DHT22;8691;50.828;4.700;2023-03-14T00:41:13;11.00;99.90
17152;DHT22;8691;50.828;4.700;2023-03-14T00:43:50;10.90;99.90
17152;DHT22;8691;50.828;4.700;2023-03-14T00:46:26;10.90;99.90
17152;DHT22;8691;50.828;4.700;2023-03-14T00:49:03;10.90;99.90
17152;DHT22;8691;50.828;4.700;2023-03-14T00:51:39;10.90;99.90
17152;DHT22;8691;50.828;4.700;2023-03-14T00:54:16;10.90;99.90
17152;DHT22;8691;50.828;4.700;2023-03-14T00:56:53;10.90;99.90
17152;DHT22;8691;50.828;4.700;2023-03-14T00:59:30;10.90;99.90
17152;DHT22;8691;50.828;4.700;2023-03-14T01:02:07;10.90;99.90
17152;DHT22;8691;50.828;4.700;2023-03-14T01:04:43;10.90;99.90
17152;DHT22;8691;50.828;4.700;2023-03-14T01:07:20;10.90;99.90
17152;DHT22;8691;50.828;4.700;2023-03-14T01:09:57;10.90;99.90
17152;DHT22;8691;50.828;4.700;2023-03-14T01:12:33;10.90;99.90
17152;DHT22;8691;50.828;4.700;2023-03-14T01:15:11;10.90;99.90
17152;DHT22;8691;50.828;4.700;2023-03-14T01:17:47;10.80;99.90
17152;DHT22;8691;50.828;4.700;2023-03-14T01:20:25;10.90;99.90
17152;DHT22;8691;50.828;4.700;2023-03-14T01:23:01;10.90;99.90
17152;DHT22;8691;50.828;4.700;2023-03-14T01:25:40;10.90;99.90
17152;DHT22;8691;50.828;4.700;2023-03-14T01:28:15;10.90;99.90
17152;DHT22;8691;50.828;4.700;2023-03-14T01:30:52;10.90;99.90
17152;DHT22;8691;50.828;4.700;2023-03-14T01:33:29;10.80;99.90
17152;DHT22;8691;50.828;4.700;2023-03-14T01:36:06;10.80;99.90
17152;DHT22;8691;50.828;4.700;2023-03-14T01:38:42;10.70;99.90
17152;DHT22;8691;50.828;4.700;2023-03-14T01:41:21;10.60;99.90
17152;DHT22;8691;50.828;4.700;2023-03-14T01:43:56;10.50;99.90
17152;DHT22;8691;50.828;4.700;2023-03-14T01:46:39;10.50;99.90
17152;DHT22;8691;50.828;4.700;2023-03-14T01:49:22;10.40;99.90
17152;DHT22;8691;50.828;4.700;2023-03-14T01:52:13;10.40;99.90
17152;DHT22;8691;50.828;4.700;2023-03-14T01:54:51;10.40;99.90
17152;DHT22;8691;50.828;4.700;2023-03-14T01:57:30;10.40;99.90
17152;DHT22;8691;50.828;4.700;2023-03-14T02:00:09;10.50;99.90
17152;DHT22;8691;50.828;4.700;2023-03-14T02:02:51;10.50;99.90
17152;DHT22;8691;50.828;4.700;2023-03-14T02:05:32;10.40;99.90
17152;DHT22;8691;50.828;4.700;2023-03-14T02:08:11;10.40;99.90
17152;DHT22;8691;50.828;4.700;2023-03-14T02:10:49;10.40;99.90
17152;DHT22;8691;50.828;4.700;2023-03-14T02:13:25;10.40;99.90
17152;DHT22;8691;50.828;4.700;2023-03-14T02:16:02;10.20;99.90
17152;DHT22;8691;50.828;4.700;2023-03-14T02:18:39;10.10;99.90
17152;DHT22;8691;50.828;4.700;2023-03-14T02:21:20;10.00;99.90
17152;DHT22;8691;50.828;4.700;2023-03-14T02:27:19;9.90;99.90
17152;DHT22;8691;50.828;4.700;2023-03-14T02:29:45;9.90;99.90
17152;DHT22;8691;50.828;4.700;2023-03-14T02:32:18;9.80;99.90
17152;DHT22;8691;50.828;4.700;2023-03-14T02:34:55;9.80;99.90
17152;DHT22;8691;50.828;4.700;2023-03-14T02:37:38;9.70;99.90
17152;DHT22;8691;50.828;4.700;2023-03-14T02:40:10;9.70;99.90
17152;DHT22;8691;50.828;4.700;2023-03-14T02:42:47;9.70;99.90
17152;DHT22;8691;50.828;4.700;2023-03-14T02:48:02;9.60;99.90
17152;DHT22;8691;50.828;4.700;2023-03-14T02:50:37;9.60;99.90
17152;DHT22;8691;50.828;4.700;2023-03-14T02:53:16;9.60;99.90
17152;DHT22;8691;50.828;4.700;2023-03-14T02:55:50;9.60;99.90
17152;DHT22;8691;50.828;4.700;2023-03-14T02:58:28;9.60;99.90
17152;DHT22;8691;50.828;4.700;2023-03-14T03:01:04;9.60;99.90
17152;DHT22;8691;50.828;4.700;2023-03-14T03:03:41;9.60;99.90
17152;DHT22;8691;50.828;4.700;2023-03-14T03:06:18;9.60;99.90
17152;DHT22;8691;50.828;4.700;2023-03-14T03:08:54;9.70;99.90
17152;DHT22;8691;50.828;4.700;2023-03-14T03:11:31;9.60;99.90
17152;DHT22;8691;50.828;4.700;2023-03-14T03:14:08;9.60;99.90
17152;DHT22;8691;50.828;4.700;2023-03-14T03:16:44;9.70;99.90
17152;DHT22;8691;50.828;4.700;2023-03-14T03:19:21;9.70;99.90
17152;DHT22;8691;50.828;4.700;2023-03-14T03:21:58;9.70;99.90
17152;DHT22;8691;50.828;4.700;2023-03-14T03:24:34;9.70;99.90
17152;DHT22;8691;50.828;4.700;2023-03-14T03:27:11;9.70;99.90
17152;DHT22;8691;50.828;4.700;2023-03-14T03:29:48;9.70;99.90
17152;DHT22;8691;50.828;4.700;2023-03-14T03:32:25;9.70;99.90
17152;DHT22;8691;50.828;4.700;2023-03-14T03:35:05;9.70;99.90
17152;DHT22;8691;50.828;4.700;2023-03-14T03:37:42;9.70;99.90
17152;DHT22;8691;50.828;4.700;2023-03-14T03:40:18;9.70;99.90
17152;DHT22;8691;50.828;4.700;2023-03-14T03:42:56;9.80;99.90
17152;DHT22;8691;50.828;4.700;2023-03-14T03:45:33;9.70;99.90
17152;DHT22;8691;50.828;4.700;2023-03-14T03:48:10;9.70;99.90
17152;DHT22;8691;50.828;4.700;2023-03-14T03:50:47;9.70;99.90
17152;DHT22;8691;50.828;4.700;2023-03-14T03:53:24;9.70;99.90
17152;DHT22;8691;50.828;4.700;2023-03-14T03:56:01;9.70;99.90
17152;DHT22;8691;50.828;4.700;2023-03-14T03:58:38;9.70;99.90
17152;DHT22;8691;50.828;4.700;2023-03-14T04:01:15;9.70;99.90
17152;DHT22;8691;50.828;4.700;2023-03-14T04:03:51;9.70;99.90
17152;DHT22;8691;50.828;4.700;2023-03-14T04:06:28;9.70;99.90
17152;DHT22;8691;50.828;4.700;2023-03-14T04:09:05;9.70;99.90
17152;DHT22;8691;50.828;4.700;2023-03-14T04:11:42;9.70;99.90
17152;DHT22;8691;50.828;4.700;2023-03-14T04:14:19;9.70;99.90
17152;DHT22;8691;50.828;4.700;2023-03-14T04:16:55;9.70;99.90
17152;DHT22;8691;50.828;4.700;2023-03-14T04:19:32;9.70;99.90
17152;DHT22;8691;50.828;4.700;2023-03-14T04:22:09;9.70;99.90
17152;DHT22;8691;50.828;4.700;2023-03-14T04:24:45;9.70;99.90
17152;DHT22;8691;50.828;4.700;2023-03-14T04:27:22;9.70;99.90
17152;DHT22;8691;50.828;4.700;2023-03-14T04:29:59;9.70;99.90
17152;DHT22;8691;50.828;4.700;2023-03-14T04:32:35;9.70;99.90
17152;DHT22;8691;50.828;4.700;2023-03-14T04:35:12;9.70;99.90
17152;DHT22;8691;50.828;4.700;2023-03-14T04:37:49;9.80;99.90
17152;DHT22;8691;50.828;4.700;2023-03-14T04:40:25;9.80;99.90
17152;DHT22;8691;50.828;4.700;2023-03-14T04:43:03;9.80;99.90
17152;DHT22;8691;50.828;4.700;2023-03-14T04:45:42;9.80;99.90
17152;DHT22;8691;50.828;4.700;2023-03-14T04:48:19;9.80;99.90
17152;DHT22;8691;50.828;4.700;2023-03-14T04:50:55;9.80;99.90
17152;DHT22;8691;50.828;4.700;2023-03-14T04:53:32;9.80;99.90
17152;DHT22;8691;50.828;4.700;2023-03-14T04:56:09;9.80;99.90
17152;DHT22;8691;50.828;4.700;2023-03-14T04:58:45;9.80;99.90
17152;DHT22;8691;50.828;4.700;2023-03-14T05:01:22;9.90;99.90
17152;DHT22;8691;50.828;4.700;2023-03-14T05:03:58;9.80;99.90
17152;DHT22;8691;50.828;4.700;2023-03-14T05:06:35;9.80;99.90
17152;DHT22;8691;50.828;4.700;2023-03-14T05:09:12;9.90;99.90
17152;DHT22;8691;50.828;4.700;2023-03-14T05:11:48;9.90;99.90
17152;DHT22;8691;50.828;4.700;2023-03-14T05:14:25;9.90;99.90
17152;DHT22;8691;50.828;4.700;2023-03-14T05:17:02;9.90;99.90
17152;DHT22;8691;50.828;4.700;2023-03-14T05:19:39;9.90;99.90
17152;DHT22;8691;50.828;4.700;2023-03-14T05:22:15;9.90;99.90
17152;DHT22;8691;50.828;4.700;2023-03-14T05:24:52;9.90;99.90
17152;DHT22;8691;50.828;4.700;2023-03-14T05:27:28;9.90;99.90
17152;DHT22;8691;50.828;4.700;2023-03-14T05:30:05;9.90;99.90
17152;DHT22;8691;50.828;4.700;2023-03-14T05:32:42;9.90;99.90
17152;DHT22;8691;50.828;4.700;2023-03-14T05:35:19;9.90;99.90
17152;DHT22;8691;50.828;4.700;2023-03-14T05:37:55;9.90;99.90
17152;DHT22;8691;50.828;4.700;2023-03-14T05:40:32;9.90;99.90
17152;DHT22;8691;50.828;4.700;2023-03-14T05:43:08;9.90;99.90
17152;DHT22;8691;50.828;4.700;2023-03-14T05:45:45;9.90;99.90
17152;DHT22;8691;50.828;4.700;2023-03-14T05:48:22;9.90;99.90
17152;DHT22;8691;50.828;4.700;2023-03-14T05:50:59;9.90;99.90
17152;DHT22;8691;50.828;4.700;2023-03-14T05:53:36;9.90;99.90
17152;DHT22;8691;50.828;4.700;2023-03-14T05:56:13;9.90;99.90
17152;DHT22;8691;50.828;4.700;2023-03-14T05:58:49;9.90;99.90
17152;DHT22;8691;50.828;4.700;2023-03-14T06:01:26;10.00;99.90
17152;DHT22;8691;50.828;4.700;2023-03-14T06:04:03;10.00;99.90
17152;DHT22;8691;50.828;4.700;2023-03-14T06:06:40;10.00;99.90
17152;DHT22;8691;50.828;4.700;2023-03-14T06:09:16;10.00;99.90
17152;DHT22;8691;50.828;4.700;2023-03-14T06:11:53;10.10;99.90
17152;DHT22;8691;50.828;4.700;2023-03-14T06:14:30;10.10;99.90
17152;DHT22;8691;50.828;4.700;2023-03-14T06:17:07;10.10;99.90
17152;DHT22;8691;50.828;4.700;2023-03-14T06:19:44;10.10;99.90
17152;DHT22;8691;50.828;4.700;2023-03-14T06:22:21;10.10;99.90
17152;DHT22;8691;50.828;4.700;2023-03-14T06:24:58;10.10;99.90
17152;DHT22;8691;50.828;4.700;2023-03-14T06:27:34;10.10;99.90
17152;DHT22;8691;50.828;4.700;2023-03-14T06:30:11;10.10;99.90
17152;DHT22;8691;50.828;4.700;2023-03-14T06:32:48;10.20;99.90
17152;DHT22;8691;50.828;4.700;2023-03-14T06:35:25;10.30;99.90
17152;DHT22;8691;50.828;4.700;2023-03-14T06:38:02;10.30;99.90
17152;DHT22;8691;50.828;4.700;2023-03-14T06:40:38;10.30;99.90
17152;DHT22;8691;50.828;4.700;2023-03-14T06:43:15;10.30;99.90
17152;DHT22;8691;50.828;4.700;2023-03-14T06:45:52;10.40;99.90
17152;DHT22;8691;50.828;4.700;2023-03-14T06:48:29;10.30;99.90
17152;DHT22;8691;50.828;4.700;2023-03-14T06:51:06;10.30;99.90
17152;DHT22;8691;50.828;4.700;2023-03-14T06:53:42;10.30;99.90
17152;DHT22;8691;50.828;4.700;2023-03-14T06:56:20;10.30;99.90
17152;DHT22;8691;50.828;4.700;2023-03-14T06:58:57;10.30;99.90
17152;DHT22;8691;50.828;4.700;2023-03-14T07:01:34;10.30;99.90
17152;DHT22;8691;50.828;4.700;2023-03-14T07:04:13;10.30;99.90
17152;DHT22;8691;50.828;4.700;2023-03-14T07:06:50;10.30;99.90
17152;DHT22;8691;50.828;4.700;2023-03-14T07:09:27;10.40;99.90
17152;DHT22;8691;50.828;4.700;2023-03-14T07:12:03;10.40;99.90
17152;DHT22;8691;50.828;4.700;2023-03-14T07:14:40;10.30;99.90
17152;DHT22;8691;50.828;4.700;2023-03-14T07:17:17;10.20;99.90
17152;DHT22;8691;50.828;4.700;2023-03-14T07:19:53;9.50;99.90
17152;DHT22;8691;50.828;4.700;2023-03-14T07:22:31;8.90;99.90
17152;DHT22;8691;50.828;4.700;2023-03-14T07:25:08;8.90;99.90
17152;DHT22;8691;50.828;4.700;2023-03-14T07:27:44;8.80;99.90
17152;DHT22;8691;50.828;4.700;2023-03-14T07:30:21;8.60;99.90
17152;DHT22;8691;50.828;4.700;2023-03-14T07:32:57;8.50;99.90
17152;DHT22;8691;50.828;4.700;2023-03-14T07:35:34;8.40;99.90
17152;DHT22;8691;50.828;4.700;2023-03-14T07:38:11;8.50;99.90
17152;DHT22;8691;50.828;4.700;2023-03-14T07:40:48;8.40;99.90
17152;DHT22;8691;50.828;4.700;2023-03-14T07:43:24;8.30;99.90
17152;DHT22;8691;50.828;4.700;2023-03-14T07:46:01;8.10;99.90
17152;DHT22;8691;50.828;4.700;2023-03-14T07:48:38;7.90;99.90
17152;DHT22;8691;50.828;4.700;2023-03-14T07:51:14;7.90;99.90
17152;DHT22;8691;50.828;4.700;2023-03-14T07:53:51;7.90;99.90
17152;DHT22;8691;50.828;4.700;2023-03-14T07:56:27;8.00;99.90
17152;DHT22;8691;50.828;4.700;2023-03-14T07:59:05;8.10;99.90
17152;DHT22;8691;50.828;4.700;2023-03-14T08:01:42;8.10;99.90
17152;DHT22;8691;50.828;4.700;2023-03-14T08:04:19;8.20;99.90
17152;DHT22;8691;50.828;4.700;2023-03-14T08:06:56;8.30;99.90
17152;DHT22;8691;50.828;4.700;2023-03-14T08:09:32;8.40;99.90
17152;DHT22;8691;50.828;4.700;2023-03-14T08:12:09;8.60;99.90
17152;DHT22;8691;50.828;4.700;2023-03-14T08:14:46;8.50;99.90
17152;DHT22;8691;50.828;4.700;2023-03-14T08:17:22;8.60;99.90
17152;DHT22;8691;50.828;4.700;2023-03-14T08:19:59;8.60;99.90
17152;DHT22;8691;50.828;4.700;2023-03-14T08:22:36;8.60;99.90
17152;DHT22;8691;50.828;4.700;2023-03-14T08:25:13;8.60;99.90
17152;DHT22;8691;50.828;4.700;2023-03-14T08:27:49;8.50;99.90
17152;DHT22;8691;50.828;4.700;2023-03-14T08:30:26;8.50;99.90
17152;DHT22;8691;50.828;4.700;2023-03-14T08:33:03;8.50;99.90
17152;DHT22;8691;50.828;4.700;2023-03-14T08:35:39;8.40;99.90
17152;DHT22;8691;50.828;4.700;2023-03-14T08:38:16;8.30;99.90
17152;DHT22;8691;50.828;4.700;2023-03-14T08:40:56;8.30;99.90
17152;DHT22;8691;50.828;4.700;2023-03-14T08:43:32;8.20;99.90
17152;DHT22;8691;50.828;4.700;2023-03-14T08:46:09;8.10;99.90
17152;DHT22;8691;50.828;4.700;2023-03-14T08:48:45;8.20;99.90
17152;DHT22;8691;50.828;4.700;2023-03-14T08:51:22;8.30;99.90
17152;DHT22;8691;50.828;4.700;2023-03-14T08:53:59;8.60;99.90
17152;DHT22;8691;50.828;4.700;2023-03-14T08:56:35;8.50;99.90
17152;DHT22;8691;50.828;4.700;2023-03-14T08:59:12;8.60;99.90
17152;DHT22;8691;50.828;4.700;2023-03-14T09:01:49;8.60;99.90
17152;DHT22;8691;50.828;4.700;2023-03-14T09:04:25;8.50;99.90
17152;DHT22;8691;50.828;4.700;2023-03-14T09:07:02;8.50;99.90
17152;DHT22;8691;50.828;4.700;2023-03-14T09:09:39;8.40;99.90
17152;DHT22;8691;50.828;4.700;2023-03-14T09:12:15;8.40;99.90
17152;DHT22;8691;50.828;4.700;2023-03-14T09:14:52;8.30;99.90
17152;DHT22;8691;50.828;4.700;2023-03-14T09:17:32;8.20;99.90
17152;DHT22;8691;50.828;4.700;2023-03-14T09:20:09;8.20;99.90
17152;DHT22;8691;50.828;4.700;2023-03-14T09:22:45;8.10;99.90
17152;DHT22;8691;50.828;4.700;2023-03-14T09:25:23;8.20;99.90
17152;DHT22;8691;50.828;4.700;2023-03-14T09:27:59;8.20;99.90
17152;DHT22;8691;50.828;4.700;2023-03-14T09:30:36;8.30;99.90
17152;DHT22;8691;50.828;4.700;2023-03-14T09:33:13;8.30;99.90
17152;DHT22;8691;50.828;4.700;2023-03-14T09:35:50;8.30;99.90
17152;DHT22;8691;50.828;4.700;2023-03-14T09:38:26;8.10;99.90
17152;DHT22;8691;50.828;4.700;2023-03-14T09:41:03;8.10;99.90
17152;DHT22;8691;50.828;4.700;2023-03-14T09:43:40;7.90;99.90
17152;DHT22;8691;50.828;4.700;2023-03-14T09:46:16;7.90;99.90
17152;DHT22;8691;50.828;4.700;2023-03-14T09:48:53;7.90;99.90
17152;DHT22;8691;50.828;4.700;2023-03-14T09:51:29;7.90;99.90
17152;DHT22;8691;50.828;4.700;2023-03-14T09:54:08;7.90;99.90
17152;DHT22;8691;50.828;4.700;2023-03-14T09:56:43;7.90;99.90
17152;DHT22;8691;50.828;4.700;2023-03-14T09:59:20;7.90;99.90
17152;DHT22;8691;50.828;4.700;2023-03-14T10:02:25;7.80;99.90
17152;DHT22;8691;50.828;4.700;2023-03-14T10:04:40;7.90;99.90
17152;DHT22;8691;50.828;4.700;2023-03-14T10:07:27;7.90;99.90
17152;DHT22;8691;50.828;4.700;2023-03-14T10:09:59;8.00;99.90
17152;DHT22;8691;50.828;4.700;2023-03-14T10:12:36;8.00;99.90
17152;DHT22;8691;50.828;4.700;2023-03-14T10:15:13;8.00;99.90
17152;DHT22;8691;50.828;4.700;2023-03-14T10:17:50;8.00;99.90
17152;DHT22;8691;50.828;4.700;2023-03-14T10:20:36;8.30;99.90
17152;DHT22;8691;50.828;4.700;2023-03-14T10:26:05;9.20;99.90
17152;DHT22;8691;50.828;4.700;2023-03-14T10:28:47;9.40;99.90
17152;DHT22;8691;50.828;4.700;2023-03-14T10:31:24;9.60;99.90
17152;DHT22;8691;50.828;4.700;2023-03-14T10:34:03;9.40;99.90
17152;DHT22;8691;50.828;4.700;2023-03-14T10:36:36;9.30;99.90
17152;DHT22;8691;50.828;4.700;2023-03-14T10:39:22;9.00;99.90
17152;DHT22;8691;50.828;4.700;2023-03-14T10:42:12;8.70;99.90
17152;DHT22;8691;50.828;4.700;2023-03-14T10:44:43;8.60;99.90
17152;DHT22;8691;50.828;4.700;2023-03-14T10:47:21;8.30;99.90
17152;DHT22;8691;50.828;4.700;2023-03-14T10:49:56;8.10;99.90
17152;DHT22;8691;50.828;4.700;2023-03-14T10:52:33;8.00;99.90
17152;DHT22;8691;50.828;4.700;2023-03-14T10:55:11;7.70;99.90
17152;DHT22;8691;50.828;4.700;2023-03-14T10:57:47;7.70;99.90
17152;DHT22;8691;50.828;4.700;2023-03-14T11:00:24;7.60;99.90
17152;DHT22;8691;50.828;4.700;2023-03-14T11:09:00;7.80;99.90
17152;DHT22;8691;50.828;4.700;2023-03-14T11:11:34;7.80;99.90
17152;DHT22;8691;50.828;4.700;2023-03-14T11:16:56;8.00;99.90
17152;DHT22;8691;50.828;4.700;2023-03-14T11:19:57;7.90;99.90
17152;DHT22;8691;50.828;4.700;2023-03-14T11:25:56;7.70;99.90
17152;DHT22;8691;50.828;4.700;2023-03-14T11:28:37;7.60;99.90
17152;DHT22;8691;50.828;4.700;2023-03-14T11:34:15;7.20;99.90
17152;DHT22;8691;50.828;4.700;2023-03-14T11:36:55;7.00;99.90
17152;DHT22;8691;50.828;4.700;2023-03-14T11:39:39;6.90;99.90
17152;DHT22;8691;50.828;4.700;2023-03-14T11:42:14;6.90;99.90
17152;DHT22;8691;50.828;4.700;2023-03-14T11:44:49;6.90;99.90
17152;DHT22;8691;50.828;4.700;2023-03-14T11:47:29;6.90;99.90
17152;DHT22;8691;50.828;4.700;2023-03-14T11:50:27;7.00;99.90
17152;DHT22;8691;50.828;4.700;2023-03-14T11:53:05;7.20;99.90
17152;DHT22;8691;50.828;4.700;2023-03-14T11:55:40;7.30;99.90
17152;DHT22;8691;50.828;4.700;2023-03-14T11:58:26;7.60;99.90
17152;DHT22;8691;50.828;4.700;2023-03-14T12:01:05;8.20;99.90
17152;DHT22;8691;50.828;4.700;2023-03-14T12:04:00;8.20;99.90
17152;DHT22;8691;50.828;4.700;2023-03-14T12:06:50;8.30;99.90
17152;DHT22;8691;50.828;4.700;2023-03-14T12:09:26;8.30;99.90
17152;DHT22;8691;50.828;4.700;2023-03-14T12:12:04;8.20;99.90
17152;DHT22;8691;50.828;4.700;2023-03-14T12:14:53;8.20;99.90
17152;DHT22;8691;50.828;4.700;2023-03-14T12:17:39;8.20;99.90
17152;DHT22;8691;50.828;4.700;2023-03-14T12:23:04;8.60;99.90
17152;DHT22;8691;50.828;4.700;2023-03-14T12:25:31;8.70;99.90
17152;DHT22;8691;50.828;4.700;2023-03-14T12:28:20;8.90;99.90
17152;DHT22;8691;50.828;4.700;2023-03-14T12:30:57;9.40;99.90
17152;DHT22;8691;50.828;4.700;2023-03-14T12:33:34;9.40;99.90
17152;DHT22;8691;50.828;4.700;2023-03-14T12:36:12;9.40;99.90
17152;DHT22;8691;50.828;4.700;2023-03-14T12:39:34;9.30;99.90
17152;DHT22;8691;50.828;4.700;2023-03-14T12:41:38;9.20;99.90
17152;DHT22;8691;50.828;4.700;2023-03-14T12:49:56;7.70;99.90
17152;DHT22;8691;50.828;4.700;2023-03-14T12:52:49;7.70;99.90
17152;DHT22;8691;50.828;4.700;2023-03-14T12:55:40;7.50;99.90
17152;DHT22;8691;50.828;4.700;2023-03-14T12:58:22;7.30;99.90
17152;DHT22;8691;50.828;4.700;2023-03-14T13:00:59;7.30;99.90
17152;DHT22;8691;50.828;4.700;2023-03-14T13:03:38;7.20;99.90
17152;DHT22;8691;50.828;4.700;2023-03-14T13:06:13;7.20;99.90
17152;DHT22;8691;50.828;4.700;2023-03-14T13:08:49;7.20;99.90
17152;DHT22;8691;50.828;4.700;2023-03-14T13:11:26;7.10;99.90
17152;DHT22;8691;50.828;4.700;2023-03-14T13:14:07;7.20;99.90
17152;DHT22;8691;50.828;4.700;2023-03-14T13:16:39;7.20;99.90
17152;DHT22;8691;50.828;4.700;2023-03-14T13:19:23;7.40;99.90
17152;DHT22;8691;50.828;4.700;2023-03-14T13:22:03;7.60;99.90
17152;DHT22;8691;50.828;4.700;2023-03-14T13:24:38;7.80;99.90
17152;DHT22;8691;50.828;4.700;2023-03-14T13:27:19;8.10;99.90
17152;DHT22;8691;50.828;4.700;2023-03-14T13:29:55;8.10;99.90
17152;DHT22;8691;50.828;4.700;2023-03-14T13:32:31;8.00;99.90
17152;DHT22;8691;50.828;4.700;2023-03-14T13:35:18;8.00;99.90
17152;DHT22;8691;50.828;4.700;2023-03-14T13:38:00;7.90;99.90
17152;DHT22;8691;50.828;4.700;2023-03-14T13:40:37;7.90;99.90
17152;DHT22;8691;50.828;4.700;2023-03-14T13:43:15;7.80;99.90
17152;DHT22;8691;50.828;4.700;2023-03-14T13:46:06;7.60;99.90
17152;DHT22;8691;50.828;4.700;2023-03-14T13:49:04;7.40;99.90
17152;DHT22;8691;50.828;4.700;2023-03-14T13:51:24;7.20;99.90
17152;DHT22;8691;50.828;4.700;2023-03-14T13:54:01;7.20;99.90
17152;DHT22;8691;50.828;4.700;2023-03-14T13:56:37;6.80;99.90
17152;DHT22;8691;50.828;4.700;2023-03-14T13:59:27;6.20;99.90
17152;DHT22;8691;50.828;4.700;2023-03-14T14:02:14;5.90;99.90
17152;DHT22;8691;50.828;4.700;2023-03-14T14:04:41;5.80;99.90
17152;DHT22;8691;50.828;4.700;2023-03-14T14:07:18;5.80;99.90
17152;DHT22;8691;50.828;4.700;2023-03-14T14:09:55;6.00;99.90
17152;DHT22;8691;50.828;4.700;2023-03-14T14:12:37;6.40;99.90
17152;DHT22;8691;50.828;4.700;2023-03-14T14:15:22;6.60;99.90
17152;DHT22;8691;50.828;4.700;2023-03-14T14:17:59;6.90;99.90
17152;DHT22;8691;50.828;4.700;2023-03-14T14:20:35;7.30;99.90
17152;DHT22;8691;50.828;4.700;2023-03-14T14:23:21;7.50;99.90
17152;DHT22;8691;50.828;4.700;2023-03-14T14:25:54;7.50;99.90
17152;DHT22;8691;50.828;4.700;2023-03-14T14:28:34;7.60;99.90
17152;DHT22;8691;50.828;4.700;2023-03-14T14:31:22;7.80;99.90
17152;DHT22;8691;50.828;4.700;2023-03-14T14:34:02;8.00;99.90
17152;DHT22;8691;50.828;4.700;2023-03-14T14:36:42;8.20;99.90
17152;DHT22;8691;50.828;4.700;2023-03-14T14:41:55;8.30;99.90
17152;DHT22;8691;50.828;4.700;2023-03-14T14:44:35;8.40;99.90
17152;DHT22;8691;50.828;4.700;2023-03-14T14:47:14;8.40;99.90
17152;DHT22;8691;50.828;4.700;2023-03-14T14:49:52;8.60;99.90
17152;DHT22;8691;50.828;4.700;2023-03-14T14:52:44;8.50;99.90
17152;DHT22;8691;50.828;4.700;2023-03-14T14:55:18;8.60;99.90
17152;DHT22;8691;50.828;4.700;2023-03-14T14:57:54;8.60;99.90
17152;DHT22;8691;50.828;4.700;2023-03-14T15:00:30;8.60;99.90
17152;DHT22;8691;50.828;4.700;2023-03-14T15:03:10;8.50;99.90
17152;DHT22;8691;50.828;4.700;2023-03-14T15:05:43;8.40;99.90
17152;DHT22;8691;50.828;4.700;2023-03-14T15:08:20;8.20;99.90
17152;DHT22;8691;50.828;4.700;2023-03-14T15:10:57;8.00;99.90
17152;DHT22;8691;50.828;4.700;2023-03-14T15:13:34;7.40;99.90
17152;DHT22;8691;50.828;4.700;2023-03-14T15:16:14;7.40;99.90
17152;DHT22;8691;50.828;4.700;2023-03-14T15:18:53;7.20;99.90
17152;DHT22;8691;50.828;4.700;2023-03-14T15:21:27;6.70;99.90
17152;DHT22;8691;50.828;4.700;2023-03-14T15:24:04;6.70;99.90
17152;DHT22;8691;50.828;4.700;2023-03-14T15:26:40;6.70;99.90
17152;DHT22;8691;50.828;4.700;2023-03-14T15:29:16;6.60;99.90
17152;DHT22;8691;50.828;4.700;2023-03-14T15:31:54;6.50;99.90
17152;DHT22;8691;50.828;4.700;2023-03-14T15:34:31;6.50;99.90
17152;DHT22;8691;50.828;4.700;2023-03-14T15:37:11;6.60;99.90
17152;DHT22;8691;50.828;4.700;2023-03-14T15:39:47;6.60;99.90
17152;DHT22;8691;50.828;4.700;2023-03-14T15:42:24;6.70;99.90
17152;DHT22;8691;50.828;4.700;2023-03-14T15:45:01;7.00;99.90
17152;DHT22;8691;50.828;4.700;2023-03-14T15:47:38;7.00;99.90
17152;DHT22;8691;50.828;4.700;2023-03-14T15:50:15;7.00;99.90
17152;DHT22;8691;50.828;4.700;2023-03-14T15:52:51;7.00;99.90
17152;DHT22;8691;50.828;4.700;2023-03-14T15:55:29;7.20;99.90
17152;DHT22;8691;50.828;4.700;2023-03-14T15:58:05;7.10;99.90
17152;DHT22;8691;50.828;4.700;2023-03-14T16:00:43;7.20;99.90
17152;DHT22;8691;50.828;4.700;2023-03-14T16:03:19;7.20;99.90
17152;DHT22;8691;50.828;4.700;2023-03-14T16:05:56;7.20;99.90
17152;DHT22;8691;50.828;4.700;2023-03-14T16:08:33;7.10;99.90
17152;DHT22;8691;50.828;4.700;2023-03-14T16:11:10;6.90;99.90
17152;DHT22;8691;50.828;4.700;2023-03-14T16:13:47;6.70;99.90
17152;DHT22;8691;50.828;4.700;2023-03-14T16:16:24;6.70;99.90
17152;DHT22;8691;50.828;4.700;2023-03-14T16:19:00;6.70;99.90
17152;DHT22;8691;50.828;4.700;2023-03-14T16:21:37;6.60;99.90
17152;DHT22;8691;50.828;4.700;2023-03-14T16:24:14;6.50;99.90
17152;DHT22;8691;50.828;4.700;2023-03-14T16:26:50;6.50;99.90
17152;DHT22;8691;50.828;4.700;2023-03-14T16:29:28;6.50;99.90
17152;DHT22;8691;50.828;4.700;2023-03-14T16:32:04;6.50;99.90
17152;DHT22;8691;50.828;4.700;2023-03-14T16:34:41;6.40;99.90
17152;DHT22;8691;50.828;4.700;2023-03-14T16:37:17;6.30;99.90
17152;DHT22;8691;50.828;4.700;2023-03-14T16:39:54;6.20;99.90
17152;DHT22;8691;50.828;4.700;2023-03-14T16:42:32;6.10;99.90
17152;DHT22;8691;50.828;4.700;2023-03-14T16:45:08;6.10;99.90
17152;DHT22;8691;50.828;4.700;2023-03-14T16:47:45;5.90;99.90
17152;DHT22;8691;50.828;4.700;2023-03-14T16:50:22;5.90;99.90
17152;DHT22;8691;50.828;4.700;2023-03-14T16:52:59;5.80;99.90
17152;DHT22;8691;50.828;4.700;2023-03-14T16:55:39;5.80;99.90
17152;DHT22;8691;50.828;4.700;2023-03-14T16:58:12;5.70;99.90
17152;DHT22;8691;50.828;4.700;2023-03-14T17:00:49;5.80;99.90
17152;DHT22;8691;50.828;4.700;2023-03-14T17:03:26;5.80;99.90
17152;DHT22;8691;50.828;4.700;2023-03-14T17:06:02;5.80;99.90
17152;DHT22;8691;50.828;4.700;2023-03-14T17:08:40;5.70;99.90
17152;DHT22;8691;50.828;4.700;2023-03-14T17:11:16;5.70;99.90
17152;DHT22;8691;50.828;4.700;2023-03-14T17:13:53;5.70;99.90
17152;DHT22;8691;50.828;4.700;2023-03-14T17:16:30;5.60;99.90
17152;DHT22;8691;50.828;4.700;2023-03-14T17:19:07;5.70;99.90
17152;DHT22;8691;50.828;4.700;2023-03-14T17:21:43;5.60;99.90
17152;DHT22;8691;50.828;4.700;2023-03-14T17:24:20;5.60;99.90
17152;DHT22;8691;50.828;4.700;2023-03-14T17:26:57;5.60;99.90
17152;DHT22;8691;50.828;4.700;2023-03-14T17:29:33;5.60;99.90
17152;DHT22;8691;50.828;4.700;2023-03-14T17:32:10;5.50;99.90
17152;DHT22;8691;50.828;4.700;2023-03-14T17:34:47;5.50;99.90
17152;DHT22;8691;50.828;4.700;2023-03-14T17:37:23;5.40;99.90
17152;DHT22;8691;50.828;4.700;2023-03-14T17:40:00;5.40;99.90